createdAt,value
2017-09-04T00:00:09.712Z,0
2017-09-04T00:01:09.481Z,0
2017-09-04T00:02:09.809Z,0
2017-09-04T00:03:09.543Z,0
2017-09-04T00:04:09.882Z,0
2017-09-04T00:05:10.002Z,0
2017-09-04T00:06:09.930Z,0
2017-09-04T00:07:09.957Z,0
2017-09-04T00:08:09.361Z,0
2017-09-04T00:09:10.321Z,0
2017-09-04T00:10:09.800Z,0
2017-09-04T00:11:10.782Z,0
2017-09-04T00:12:10.548Z,0
2017-09-04T00:13:10.871Z,0
2017-09-04T00:14:11.116Z,0
2017-09-04T00:15:11.203Z,0
2017-09-04T00:16:10.600Z,0
2017-09-04T00:17:10.003Z,0
2017-09-04T00:18:10.980Z,0
2017-09-04T00:19:10.709Z,0
2017-09-04T00:20:10.743Z,0
2017-09-04T00:21:11.406Z,0
2017-09-04T00:22:11.664Z,0
2017-09-04T00:23:10.823Z,0
2017-09-04T00:24:10.555Z,0
2017-09-04T00:25:11.318Z,0
2017-09-04T00:26:11.613Z,0
2017-09-04T00:27:11.295Z,0
2017-09-04T00:28:11.619Z,0
2017-09-04T00:29:11.396Z,0
2017-09-04T00:30:11.982Z,0
2017-09-04T00:31:12.053Z,0
2017-09-04T00:32:12.087Z,0
2017-09-04T00:33:12.120Z,0
2017-09-04T00:34:11.854Z,0
2017-09-04T00:35:12.320Z,0
2017-09-04T00:36:11.598Z,0
2017-09-04T00:37:12.566Z,0
2017-09-04T00:38:12.289Z,0
2017-09-04T00:39:12.316Z,0
2017-09-04T00:40:12.722Z,0
2017-09-04T00:41:12.387Z,0
2017-09-04T00:42:12.414Z,0
2017-09-04T00:43:12.781Z,0
2017-09-04T00:44:12.763Z,0
2017-09-04T00:45:12.803Z,0
2017-09-04T00:46:12.232Z,0
2017-09-04T00:47:12.569Z,0
2017-09-04T00:48:12.898Z,0
2017-09-04T00:49:12.898Z,0
2017-09-04T00:50:13.543Z,0
2017-09-04T00:51:12.989Z,0
2017-09-04T00:52:13.646Z,0
2017-09-04T00:53:13.060Z,0
2017-09-04T00:54:14.056Z,0
2017-09-04T00:55:13.437Z,0
2017-09-04T00:56:13.878Z,0
2017-09-04T00:57:14.601Z,0
2017-09-04T00:58:15.231Z,0
2017-09-04T00:59:14.626Z,0
2017-09-04T01:00:15.569Z,0
2017-09-04T01:01:15.369Z,0
2017-09-04T01:02:15.402Z,0
2017-09-04T01:03:15.138Z,0
2017-09-04T01:04:15.815Z,0
2017-09-04T01:05:15.841Z,0
2017-09-04T01:06:15.562Z,0
2017-09-04T01:07:16.542Z,0
2017-09-04T01:08:16.220Z,0
2017-09-04T01:09:16.288Z,0
2017-09-04T01:10:16.327Z,0
2017-09-04T01:11:16.021Z,0
2017-09-04T01:12:16.047Z,0
2017-09-04T01:13:17.026Z,0
2017-09-04T01:14:16.732Z,0
2017-09-04T01:15:16.464Z,0
2017-09-04T01:16:17.437Z,0
2017-09-04T01:17:17.523Z,0
2017-09-04T01:18:17.524Z,0
2017-09-04T01:19:17.200Z,0
2017-09-04T01:20:16.915Z,0
2017-09-04T01:21:17.884Z,0
2017-09-04T01:22:17.277Z,0
2017-09-04T01:23:17.586Z,0
2017-09-04T01:24:17.653Z,0
2017-09-04T01:25:18.287Z,0
2017-09-04T01:26:18.021Z,0
2017-09-04T01:27:18.669Z,0
2017-09-04T01:28:18.029Z,0
2017-09-04T01:29:18.716Z,0
2017-09-04T01:30:18.738Z,0
2017-09-04T01:31:18.475Z,0
2017-09-04T01:32:18.799Z,0
2017-09-04T01:33:18.525Z,0
2017-09-04T01:34:18.859Z,0
2017-09-04T01:35:18.595Z,0
2017-09-04T01:36:19.246Z,0
2017-09-04T01:37:18.961Z,0
2017-09-04T01:38:18.652Z,0
2017-09-04T01:39:19.025Z,0
2017-09-04T01:40:20.002Z,0
2017-09-04T01:41:19.717Z,0
2017-09-04T01:42:19.754Z,0
2017-09-04T01:43:19.135Z,0
2017-09-04T01:44:19.484Z,0
2017-09-04T01:45:19.818Z,0
2017-09-04T01:46:20.150Z,0
2017-09-04T01:47:20.801Z,0
2017-09-04T01:48:21.141Z,0
2017-09-04T01:49:20.235Z,0
2017-09-04T01:50:20.863Z,0
2017-09-04T01:51:20.623Z,0
2017-09-04T01:52:20.940Z,0
2017-09-04T01:53:20.666Z,0
2017-09-04T01:54:20.738Z,0
2017-09-04T01:55:21.534Z,0
2017-09-04T01:56:21.904Z,0
2017-09-04T01:57:21.311Z,0
2017-09-04T01:58:22.291Z,0
2017-09-04T01:59:22.020Z,0
2017-09-04T02:00:22.069Z,0
2017-09-04T02:01:22.093Z,0
2017-09-04T02:02:22.211Z,0
2017-09-04T02:03:22.143Z,0
2017-09-04T02:04:22.170Z,0
2017-09-04T02:05:22.601Z,0
2017-09-04T02:06:22.536Z,0
2017-09-04T02:07:22.248Z,0
2017-09-04T02:08:21.965Z,0
2017-09-04T02:09:22.029Z,0
2017-09-04T02:10:22.419Z,0
2017-09-04T02:11:23.095Z,0
2017-09-04T02:12:22.810Z,0
2017-09-04T02:13:23.501Z,0
2017-09-04T02:14:23.510Z,0
2017-09-04T02:15:23.694Z,0
2017-09-04T02:16:23.263Z,0
2017-09-04T02:17:23.288Z,0
2017-09-04T02:18:23.325Z,0
2017-09-04T02:19:23.672Z,0
2017-09-04T02:20:23.697Z,0
2017-09-04T02:21:23.728Z,0
2017-09-04T02:22:23.797Z,0
2017-09-04T02:23:22.835Z,0
2017-09-04T02:24:23.826Z,0
2017-09-04T02:25:23.640Z,0
2017-09-04T02:26:23.547Z,0
2017-09-04T02:27:23.231Z,0
2017-09-04T02:28:23.904Z,0
2017-09-04T02:29:23.931Z,0
2017-09-04T02:30:23.630Z,0
2017-09-04T02:31:24.289Z,0
2017-09-04T02:32:24.368Z,0
2017-09-04T02:33:24.360Z,0
2017-09-04T02:34:25.758Z,0
2017-09-04T02:35:24.426Z,0
2017-09-04T02:36:24.154Z,0
2017-09-04T02:37:24.151Z,0
2017-09-04T02:38:24.453Z,0
2017-09-04T02:39:24.802Z,0
2017-09-04T02:40:24.505Z,0
2017-09-04T02:41:24.530Z,0
2017-09-04T02:42:24.903Z,0
2017-09-04T02:43:24.943Z,0
2017-09-04T02:44:24.947Z,0
2017-09-04T02:45:25.000Z,0
2017-09-04T02:46:25.027Z,0
2017-09-04T02:47:24.710Z,0
2017-09-04T02:48:25.098Z,0
2017-09-04T02:49:25.116Z,0
2017-09-04T02:50:24.964Z,0
2017-09-04T02:51:25.182Z,0
2017-09-04T02:52:24.896Z,0
2017-09-04T02:53:25.235Z,0
2017-09-04T02:54:24.627Z,0
2017-09-04T02:55:25.002Z,0
2017-09-04T02:56:25.020Z,0
2017-09-04T02:57:25.054Z,0
2017-09-04T02:58:25.067Z,0
2017-09-04T02:59:25.413Z,0
2017-09-04T03:00:25.465Z,0
2017-09-04T03:01:25.485Z,0
2017-09-04T03:02:25.014Z,0
2017-09-04T03:03:25.701Z,0
2017-09-04T03:04:25.406Z,0
2017-09-04T03:05:25.444Z,0
2017-09-04T03:06:25.767Z,0
2017-09-04T03:07:25.811Z,0
2017-09-04T03:08:25.528Z,0
2017-09-04T03:09:25.861Z,0
2017-09-04T03:10:25.256Z,0
2017-09-04T03:11:25.934Z,0
2017-09-04T03:12:25.619Z,0
2017-09-04T03:13:25.674Z,0
2017-09-04T03:14:25.400Z,0
2017-09-04T03:15:25.749Z,0
2017-09-04T03:16:26.409Z,0
2017-09-04T03:17:26.133Z,0
2017-09-04T03:18:26.502Z,0
2017-09-04T03:19:25.902Z,0
2017-09-04T03:20:26.512Z,0
2017-09-04T03:21:26.878Z,0
2017-09-04T03:22:26.920Z,0
2017-09-04T03:23:26.649Z,0
2017-09-04T03:24:26.682Z,0
2017-09-04T03:25:27.325Z,0
2017-09-04T03:26:27.019Z,0
2017-09-04T03:27:27.088Z,0
2017-09-04T03:28:27.404Z,0
2017-09-04T03:29:27.127Z,0
2017-09-04T03:30:27.708Z,0
2017-09-04T03:31:27.398Z,0
2017-09-04T03:32:28.052Z,0
2017-09-04T03:33:27.795Z,0
2017-09-04T03:34:28.778Z,0
2017-09-04T03:35:28.966Z,0
2017-09-04T03:36:28.520Z,0
2017-09-04T03:37:28.558Z,0
2017-09-04T03:38:28.587Z,0
2017-09-04T03:39:28.615Z,0
2017-09-04T03:40:28.730Z,0
2017-09-04T03:41:29.039Z,0
2017-09-04T03:42:29.083Z,0
2017-09-04T03:43:29.126Z,0
2017-09-04T03:44:28.854Z,0
2017-09-04T03:45:29.294Z,0
2017-09-04T03:46:29.176Z,0
2017-09-04T03:47:29.546Z,0
2017-09-04T03:48:29.271Z,0
2017-09-04T03:49:29.606Z,0
2017-09-04T03:50:29.627Z,0
2017-09-04T03:51:29.334Z,0
2017-09-04T03:52:29.631Z,0
2017-09-04T03:53:29.666Z,0
2017-09-04T03:54:29.710Z,0
2017-09-04T03:55:30.216Z,0
2017-09-04T03:56:29.784Z,0
2017-09-04T03:57:29.462Z,0
2017-09-04T03:58:30.450Z,0
2017-09-04T03:59:30.469Z,0
2017-09-04T04:00:30.245Z,0
2017-09-04T04:01:30.296Z,0
2017-09-04T04:02:30.628Z,0
2017-09-04T04:03:30.300Z,0
2017-09-04T04:04:30.376Z,0
2017-09-04T04:05:30.412Z,0
2017-09-04T04:06:30.736Z,0
2017-09-04T04:07:30.766Z,0
2017-09-04T04:08:30.480Z,0
2017-09-04T04:09:30.801Z,0
2017-09-04T04:10:30.202Z,0
2017-09-04T04:11:30.940Z,0
2017-09-04T04:12:30.292Z,0
2017-09-04T04:13:30.311Z,0
2017-09-04T04:14:31.317Z,0
2017-09-04T04:15:30.405Z,0
2017-09-04T04:16:31.069Z,0
2017-09-04T04:17:31.108Z,0
2017-09-04T04:18:31.783Z,0
2017-09-04T04:19:31.764Z,0
2017-09-04T04:20:31.166Z,5
2017-09-04T04:21:31.798Z,5
2017-09-04T04:22:31.879Z,5
2017-09-04T04:23:31.910Z,5
2017-09-04T04:24:31.603Z,5
2017-09-04T04:25:31.989Z,5
2017-09-04T04:26:32.019Z,5
2017-09-04T04:27:32.341Z,10
2017-09-04T04:28:32.060Z,10
2017-09-04T04:29:31.794Z,10
2017-09-04T04:30:32.116Z,10
2017-09-04T04:31:32.246Z,15
2017-09-04T04:32:32.203Z,15
2017-09-04T04:33:32.466Z,15
2017-09-04T04:34:32.507Z,20
2017-09-04T04:35:32.589Z,20
2017-09-04T04:36:32.802Z,20
2017-09-04T04:37:32.530Z,20
2017-09-04T04:38:32.371Z,25
2017-09-04T04:39:32.413Z,25
2017-09-04T04:40:31.808Z,25
2017-09-04T04:41:32.615Z,30
2017-09-04T04:42:32.642Z,30
2017-09-04T04:43:32.021Z,30
2017-09-04T04:44:32.971Z,30
2017-09-04T04:45:32.732Z,35
2017-09-04T04:46:32.828Z,35
2017-09-04T04:47:33.150Z,35
2017-09-04T04:48:33.320Z,40
2017-09-04T04:49:32.863Z,40
2017-09-04T04:50:33.203Z,40
2017-09-04T04:51:33.696Z,45
2017-09-04T04:52:32.916Z,45
2017-09-04T04:53:33.671Z,45
2017-09-04T04:54:33.331Z,50
2017-09-04T04:55:33.724Z,50
2017-09-04T04:56:33.152Z,50
2017-09-04T04:57:33.832Z,55
2017-09-04T04:58:34.177Z,55
2017-09-04T04:59:34.520Z,60
2017-09-04T05:00:34.685Z,60
2017-09-04T05:01:34.283Z,65
2017-09-04T05:02:34.685Z,65
2017-09-04T05:03:34.748Z,70
2017-09-04T05:04:34.720Z,70
2017-09-04T05:05:34.754Z,70
2017-09-04T05:06:34.798Z,75
2017-09-04T05:07:34.839Z,80
2017-09-04T05:08:35.152Z,80
2017-09-04T05:09:34.895Z,85
2017-09-04T05:10:34.878Z,85
2017-09-04T05:11:34.895Z,90
2017-09-04T05:12:34.598Z,90
2017-09-04T05:13:35.558Z,95
2017-09-04T05:14:35.265Z,95
2017-09-04T05:15:35.591Z,100
2017-09-04T05:16:35.007Z,100
2017-09-04T05:17:35.389Z,105
2017-09-04T05:18:35.419Z,105
2017-09-04T05:19:35.653Z,105
2017-09-04T05:20:35.826Z,110
2017-09-04T05:21:35.487Z,110
2017-09-04T05:22:35.225Z,115
2017-09-04T05:23:35.932Z,115
2017-09-04T05:24:35.625Z,115
2017-09-04T05:25:36.051Z,120
2017-09-04T05:26:36.666Z,120
2017-09-04T05:27:36.386Z,125
2017-09-04T05:28:37.072Z,125
2017-09-04T05:29:36.499Z,125
2017-09-04T05:30:37.462Z,125
2017-09-04T05:31:37.547Z,125
2017-09-04T05:32:36.989Z,130
2017-09-04T05:33:37.712Z,130
2017-09-04T05:34:38.121Z,140
2017-09-04T05:35:38.419Z,135
2017-09-04T05:36:38.170Z,140
2017-09-04T05:37:38.923Z,140
2017-09-04T05:38:39.259Z,145
2017-09-04T05:39:39.262Z,145
2017-09-04T05:40:39.259Z,155
2017-09-04T05:41:39.652Z,200
2017-09-04T05:42:39.361Z,200
2017-09-04T05:43:39.734Z,175
2017-09-04T05:44:39.725Z,205
2017-09-04T05:45:39.455Z,240
2017-09-04T05:46:39.166Z,320
2017-09-04T05:47:38.994Z,350
2017-09-04T05:48:39.212Z,265
2017-09-04T05:49:39.597Z,255
2017-09-04T05:50:39.899Z,260
2017-09-04T05:51:39.637Z,225
2017-09-04T05:52:40.329Z,205
2017-09-04T05:53:40.112Z,205
2017-09-04T05:54:40.484Z,215
2017-09-04T05:55:40.760Z,220
2017-09-04T05:56:40.790Z,230
2017-09-04T05:57:40.196Z,240
2017-09-04T05:58:39.945Z,275
2017-09-04T05:59:41.259Z,250
2017-09-04T06:00:43.533Z,245
2017-09-04T06:01:40.999Z,280
2017-09-04T06:02:41.130Z,380
2017-09-04T06:03:41.432Z,435
2017-09-04T06:04:41.766Z,490
2017-09-04T06:05:41.545Z,485
2017-09-04T06:06:41.877Z,575
2017-09-04T06:07:42.011Z,430
2017-09-04T06:08:41.613Z,385
2017-09-04T06:09:41.991Z,480
2017-09-04T06:10:41.964Z,650
2017-09-04T06:11:42.031Z,715
2017-09-04T06:12:42.525Z,770
2017-09-04T06:13:42.102Z,825
2017-09-04T06:14:41.827Z,1010
2017-09-04T06:15:42.158Z,1060
2017-09-04T06:16:42.441Z,1000
2017-09-04T06:17:41.969Z,1005
2017-09-04T06:18:42.002Z,1075
2017-09-04T06:19:41.707Z,1075
2017-09-04T06:20:42.062Z,1095
2017-09-04T06:21:42.136Z,1110
2017-09-04T06:22:41.834Z,1145
2017-09-04T06:23:41.902Z,1145
2017-09-04T06:24:42.564Z,1135
2017-09-04T06:25:42.616Z,1150
2017-09-04T06:26:43.005Z,1180
2017-09-04T06:27:42.443Z,1215
2017-09-04T06:28:43.453Z,1215
2017-09-04T06:29:43.158Z,1190
2017-09-04T06:30:43.547Z,1170
2017-09-04T06:31:43.878Z,1210
2017-09-04T06:32:43.579Z,1230
2017-09-04T06:33:44.245Z,1225
2017-09-04T06:34:44.029Z,1240
2017-09-04T06:35:44.368Z,1265
2017-09-04T06:36:44.149Z,1240
2017-09-04T06:37:45.106Z,1210
2017-09-04T06:38:45.195Z,1250
2017-09-04T06:39:45.189Z,1280
2017-09-04T06:40:44.644Z,1285
2017-09-04T06:41:45.004Z,1305
2017-09-04T06:42:44.996Z,1360
2017-09-04T06:43:45.446Z,1335
2017-09-04T06:44:45.557Z,1350
2017-09-04T06:45:46.444Z,1345
2017-09-04T06:46:46.560Z,1355
2017-09-04T06:47:45.945Z,1395
2017-09-04T06:48:46.568Z,1390
2017-09-04T06:49:46.642Z,1420
2017-09-04T06:50:46.663Z,1410
2017-09-04T06:51:46.069Z,1355
2017-09-04T06:52:46.740Z,1405
2017-09-04T06:53:46.780Z,1450
2017-09-04T06:54:46.502Z,1460
2017-09-04T06:55:47.138Z,1445
2017-09-04T06:56:46.933Z,1435
2017-09-04T06:57:47.343Z,1470
2017-09-04T06:58:47.719Z,1495
2017-09-04T06:59:48.450Z,1485
2017-09-04T07:00:53.016Z,1410
2017-09-04T07:01:53.450Z,1355
2017-09-04T07:02:53.803Z,1475
2017-09-04T07:03:53.836Z,1490
2017-09-04T07:04:54.546Z,1445
2017-09-04T07:05:53.936Z,1515
2017-09-04T07:06:54.675Z,1550
2017-09-04T07:07:54.684Z,1570
2017-09-04T07:08:55.008Z,1590
2017-09-04T07:09:54.783Z,1635
2017-09-04T07:10:55.149Z,1645
2017-09-04T07:11:54.544Z,1600
2017-09-04T07:12:55.738Z,1645
2017-09-04T07:13:55.537Z,1685
2017-09-04T07:14:55.038Z,1670
2017-09-04T07:15:56.058Z,1670
2017-09-04T07:16:55.207Z,1640
2017-09-04T07:17:56.109Z,1705
2017-09-04T07:18:56.171Z,1695
2017-09-04T07:19:55.873Z,1685
2017-09-04T07:20:55.948Z,1705
2017-09-04T07:21:55.652Z,1600
2017-09-04T07:22:56.057Z,1465
2017-09-04T07:23:55.809Z,1685
2017-09-04T07:24:56.247Z,1810
2017-09-04T07:25:56.642Z,1705
2017-09-04T07:26:57.051Z,1615
2017-09-04T07:27:56.749Z,1640
2017-09-04T07:28:56.864Z,1685
2017-09-04T07:29:56.973Z,1825
2017-09-04T07:30:57.912Z,1790
2017-09-04T07:31:57.851Z,1695
2017-09-04T07:32:57.844Z,1715
2017-09-04T07:33:57.443Z,1810
2017-09-04T07:34:57.518Z,1925
2017-09-04T07:35:58.178Z,1835
2017-09-04T07:36:58.581Z,1850
2017-09-04T07:37:58.822Z,1900
2017-09-04T07:38:58.650Z,1870
2017-09-04T07:39:58.436Z,1855
2017-09-04T07:40:57.465Z,1845
2017-09-04T07:41:58.781Z,1825
2017-09-04T07:42:58.804Z,1890
2017-09-04T07:43:58.819Z,1810
2017-09-04T07:44:58.586Z,1815
2017-09-04T07:45:58.921Z,1890
2017-09-04T07:46:58.988Z,1940
2017-09-04T07:50:30.200Z,1975
2017-09-04T07:51:01.243Z,1965
2017-09-04T07:52:00.524Z,1915
2017-09-04T07:52:59.815Z,1825
2017-09-04T07:53:59.908Z,1895
2017-09-04T07:55:00.651Z,1975
2017-09-04T07:56:00.659Z,1955
2017-09-04T07:57:00.670Z,1970
2017-09-04T07:58:01.112Z,2045
2017-09-04T07:59:01.190Z,1990
2017-09-04T08:00:01.923Z,1980
2017-09-04T08:01:01.915Z,2020
2017-09-04T08:02:01.664Z,2000
2017-09-04T08:03:01.836Z,1990
2017-09-04T08:04:02.167Z,2040
2017-09-04T08:05:02.261Z,2095
2017-09-04T08:06:02.355Z,2085
2017-09-04T08:07:02.514Z,2110
2017-09-04T08:08:02.841Z,2075
2017-09-04T08:09:02.972Z,2160
2017-09-04T08:10:03.438Z,2105
2017-09-04T08:11:04.112Z,2025
2017-09-04T08:12:04.183Z,1955
2017-09-04T08:13:03.843Z,2050
2017-09-04T08:14:03.951Z,2085
2017-09-04T08:15:04.543Z,2115
2017-09-04T08:16:04.703Z,2105
2017-09-04T08:17:04.130Z,2130
2017-09-04T08:18:05.189Z,2115
2017-09-04T08:19:05.212Z,2140
2017-09-04T08:20:04.966Z,2090
2017-09-04T08:21:04.661Z,2120
2017-09-04T08:22:05.363Z,2050
2017-09-04T08:23:05.112Z,2125
2017-09-04T08:24:05.452Z,2180
2017-09-04T08:25:04.887Z,2190
2017-09-04T08:26:05.265Z,2175
2017-09-04T08:27:05.363Z,2185
2017-09-04T08:28:05.989Z,2180
2017-09-04T08:29:05.809Z,2200
2017-09-04T08:30:06.825Z,2170
2017-09-04T08:31:06.582Z,2220
2017-09-04T08:32:06.560Z,2200
2017-09-04T08:33:06.361Z,2220
2017-09-04T08:34:07.102Z,2280
2017-09-04T08:35:06.757Z,2285
2017-09-04T08:36:07.162Z,2235
2017-09-04T08:37:07.003Z,2215
2017-09-04T08:38:06.975Z,2195
2017-09-04T08:39:06.989Z,2310
2017-09-04T08:40:07.682Z,2285
2017-09-04T08:41:07.104Z,2260
2017-09-04T08:42:07.189Z,2140
2017-09-04T08:43:07.239Z,2255
2017-09-04T08:44:07.279Z,2305
2017-09-04T08:45:07.119Z,2250
2017-09-04T08:46:07.527Z,2295
2017-09-04T08:47:07.585Z,2300
2017-09-04T08:48:08.789Z,2300
2017-09-04T08:49:08.599Z,2305
2017-09-04T08:50:08.281Z,2265
2017-09-04T08:51:09.042Z,2210
2017-09-04T08:52:08.139Z,2170
2017-09-04T08:53:08.826Z,2135
2017-09-04T08:54:09.169Z,2265
2017-09-04T08:55:08.994Z,2220
2017-09-04T08:56:09.680Z,1995
2017-09-04T08:57:09.764Z,2145
2017-09-04T08:58:09.769Z,2410
2017-09-04T08:59:09.200Z,2395
2017-09-04T09:00:10.301Z,2230
2017-09-04T09:01:10.025Z,2290
2017-09-04T09:02:09.901Z,2335
2017-09-04T09:03:10.316Z,2390
2017-09-04T09:04:10.043Z,2390
2017-09-04T09:05:10.376Z,2355
2017-09-04T09:06:11.218Z,2370
2017-09-04T09:07:10.853Z,2365
2017-09-04T09:08:11.513Z,2350
2017-09-04T09:09:11.286Z,2365
2017-09-04T09:10:11.707Z,2290
2017-09-04T09:11:12.074Z,2265
2017-09-04T09:12:11.807Z,2200
2017-09-04T09:13:11.815Z,2305
2017-09-04T09:14:12.447Z,2295
2017-09-04T09:15:11.345Z,2325
2017-09-04T09:16:12.315Z,2500
2017-09-04T09:17:11.754Z,2475
2017-09-04T09:18:12.154Z,2295
2017-09-04T09:19:12.573Z,2335
2017-09-04T09:20:12.672Z,2290
2017-09-04T09:21:13.396Z,2345
2017-09-04T09:22:13.967Z,2405
2017-09-04T09:23:13.804Z,2425
2017-09-04T09:24:13.512Z,2290
2017-09-04T09:25:13.929Z,2265
2017-09-04T09:26:13.107Z,2345
2017-09-04T09:27:13.299Z,2335
2017-09-04T09:28:13.882Z,2330
2017-09-04T09:29:14.868Z,2365
2017-09-04T09:30:14.301Z,2265
2017-09-04T09:31:14.996Z,2120
2017-09-04T09:32:15.055Z,2260
2017-09-04T09:33:15.409Z,2300
2017-09-04T09:34:16.403Z,2400
2017-09-04T09:35:15.899Z,2375
2017-09-04T09:36:15.958Z,2360
2017-09-04T09:37:16.626Z,2375
2017-09-04T09:38:16.697Z,2415
2017-09-04T09:39:16.443Z,2520
2017-09-04T09:40:16.478Z,2675
2017-09-04T09:41:17.168Z,2585
2017-09-04T09:42:17.255Z,2610
2017-09-04T09:43:17.627Z,2665
2017-09-04T09:44:17.693Z,2655
2017-09-04T09:45:17.383Z,2705
2017-09-04T09:46:18.013Z,2650
2017-09-04T09:47:17.213Z,2740
2017-09-04T09:48:17.574Z,2660
2017-09-04T09:49:18.195Z,2560
2017-09-04T09:50:18.196Z,2295
2017-09-04T09:51:18.388Z,2035
2017-09-04T09:52:17.518Z,1765
2017-09-04T09:53:18.258Z,1625
2017-09-04T09:54:18.349Z,1370
2017-09-04T09:55:19.357Z,1160
2017-09-04T09:56:18.773Z,1125
2017-09-04T09:57:18.812Z,1080
2017-09-04T09:58:19.190Z,1005
2017-09-04T09:59:19.603Z,935
2017-09-04T10:00:19.944Z,895
2017-09-04T10:01:19.793Z,865
2017-09-04T10:02:20.103Z,830
2017-09-04T10:03:19.766Z,810
2017-09-04T10:04:20.148Z,785
2017-09-04T10:05:20.192Z,795
2017-09-04T10:06:19.900Z,800
2017-09-04T10:07:20.715Z,810
2017-09-04T10:08:20.062Z,800
2017-09-04T10:09:20.439Z,780
2017-09-04T10:10:20.838Z,750
2017-09-04T10:11:20.855Z,735
2017-09-04T10:12:21.003Z,740
2017-09-04T10:13:21.030Z,735
2017-09-04T10:14:21.657Z,715
2017-09-04T10:15:21.687Z,705
2017-09-04T10:16:22.118Z,715
2017-09-04T10:17:22.099Z,700
2017-09-04T10:18:21.209Z,720
2017-09-04T10:19:21.886Z,775
2017-09-04T10:20:21.972Z,785
2017-09-04T10:21:21.716Z,755
2017-09-04T10:22:22.094Z,740
2017-09-04T10:23:21.851Z,740
2017-09-04T10:24:22.247Z,710
2017-09-04T10:25:22.825Z,425
2017-09-04T10:26:22.844Z,350
2017-09-04T10:27:22.589Z,700
2017-09-04T10:28:22.676Z,695
2017-09-04T10:29:23.126Z,675
2017-09-04T10:30:23.088Z,655
2017-09-04T10:31:23.172Z,655
2017-09-04T10:32:22.550Z,670
2017-09-04T10:33:23.552Z,675
2017-09-04T10:34:23.775Z,685
2017-09-04T10:35:23.535Z,685
2017-09-04T10:36:23.966Z,340
2017-09-04T10:37:23.108Z,475
2017-09-04T10:38:24.153Z,720
2017-09-04T10:39:23.863Z,760
2017-09-04T10:40:23.667Z,770
2017-09-04T10:41:24.083Z,750
2017-09-04T10:42:24.399Z,710
2017-09-04T10:43:24.130Z,680
2017-09-04T10:44:24.216Z,640
2017-09-04T10:45:24.316Z,690
2017-09-04T10:46:24.658Z,345
2017-09-04T10:47:24.662Z,335
2017-09-04T10:48:25.098Z,670
2017-09-04T10:49:25.102Z,680
2017-09-04T10:50:25.513Z,700
2017-09-04T10:51:24.919Z,700
2017-09-04T10:52:25.293Z,740
2017-09-04T10:53:25.257Z,765
2017-09-04T10:54:25.275Z,765
2017-09-04T10:55:25.097Z,725
2017-09-04T10:56:25.109Z,380
2017-09-04T10:57:24.845Z,690
2017-09-04T10:58:25.199Z,445
2017-09-04T10:59:25.881Z,345
2017-09-04T11:00:26.223Z,355
2017-09-04T11:01:26.266Z,370
2017-09-04T11:02:26.438Z,380
2017-09-04T11:03:26.020Z,370
2017-09-04T11:04:26.104Z,365
2017-09-04T11:05:26.297Z,535
2017-09-04T11:06:26.161Z,385
2017-09-04T11:07:26.499Z,510
2017-09-04T11:08:27.129Z,475
2017-09-04T11:09:26.520Z,455
2017-09-04T11:10:27.202Z,350
2017-09-04T11:11:27.525Z,430
2017-09-04T11:12:27.002Z,450
2017-09-04T11:13:27.618Z,430
2017-09-04T11:14:27.391Z,370
2017-09-04T11:15:27.393Z,375
2017-09-04T11:16:27.482Z,355
2017-09-04T11:17:27.258Z,325
2017-09-04T11:18:27.888Z,270
2017-09-04T11:19:27.928Z,270
2017-09-04T11:20:27.995Z,340
2017-09-04T11:21:28.005Z,400
2017-09-04T11:22:28.760Z,440
2017-09-04T11:23:29.118Z,400
2017-09-04T11:24:28.870Z,385
2017-09-04T11:25:29.262Z,365
2017-09-04T11:26:29.321Z,360
2017-09-04T11:27:29.337Z,360
2017-09-04T11:28:30.368Z,370
2017-09-04T11:29:29.777Z,385
2017-09-04T11:30:30.524Z,405
2017-09-04T11:31:30.192Z,415
2017-09-04T11:32:30.590Z,520
2017-09-04T11:33:30.368Z,485
2017-09-04T11:34:30.304Z,515
2017-09-04T11:35:30.377Z,475
2017-09-04T11:36:31.347Z,440
2017-09-04T11:37:31.171Z,415
2017-09-04T11:38:30.817Z,430
2017-09-04T11:39:31.140Z,490
2017-09-04T11:40:31.258Z,485
2017-09-04T11:41:31.622Z,420
2017-09-04T11:42:31.577Z,450
2017-09-04T11:43:31.670Z,455
2017-09-04T11:44:31.714Z,465
2017-09-04T11:45:31.441Z,395
2017-09-04T11:46:30.539Z,410
2017-09-04T11:47:31.832Z,410
2017-09-04T11:48:31.667Z,380
2017-09-04T11:49:31.907Z,360
2017-09-04T11:50:31.339Z,345
2017-09-04T11:51:31.423Z,330
2017-09-04T11:52:32.083Z,330
2017-09-04T11:53:31.829Z,340
2017-09-04T11:54:32.623Z,350
2017-09-04T11:55:32.247Z,355
2017-09-04T11:56:32.005Z,350
2017-09-04T11:57:32.942Z,325
2017-09-04T11:58:33.021Z,335
2017-09-04T11:59:32.129Z,350
2017-09-04T12:00:33.072Z,390
2017-09-04T12:01:32.440Z,390
2017-09-04T12:02:34.053Z,380
2017-09-04T12:03:32.611Z,390
2017-09-04T12:04:33.018Z,355
2017-09-04T12:05:33.343Z,305
2017-09-04T12:06:32.722Z,280
2017-09-04T12:07:33.120Z,280
2017-09-04T12:08:32.521Z,275
2017-09-04T12:09:32.603Z,300
2017-09-04T12:10:33.294Z,325
2017-09-04T12:11:32.970Z,320
2017-09-04T12:12:33.333Z,305
2017-09-04T12:13:33.121Z,335
2017-09-04T12:14:33.508Z,395
2017-09-04T12:15:34.171Z,400
2017-09-04T12:16:33.607Z,390
2017-09-04T12:17:33.022Z,395
2017-09-04T12:18:34.021Z,410
2017-09-04T12:19:34.033Z,415
2017-09-04T12:20:33.779Z,425
2017-09-04T12:21:33.527Z,405
2017-09-04T12:22:34.236Z,360
2017-09-04T12:23:34.267Z,325
2017-09-04T12:24:34.282Z,305
2017-09-04T12:25:34.333Z,335
2017-09-04T12:26:34.095Z,355
2017-09-04T12:27:34.110Z,380
2017-09-04T12:28:34.508Z,370
2017-09-04T12:29:35.475Z,330
2017-09-04T12:30:34.987Z,335
2017-09-04T12:31:35.643Z,345
2017-09-04T12:32:35.885Z,295
2017-09-04T12:33:36.023Z,275
2017-09-04T12:34:36.075Z,265
2017-09-04T12:35:36.186Z,265
2017-09-04T12:36:36.512Z,280
2017-09-04T12:37:35.589Z,265
2017-09-04T12:38:35.975Z,275
2017-09-04T12:39:36.371Z,275
2017-09-04T12:40:36.782Z,290
2017-09-04T12:41:37.552Z,295
2017-09-04T12:42:37.216Z,275
2017-09-04T12:43:37.586Z,260
2017-09-04T12:44:37.947Z,255
2017-09-04T12:45:37.981Z,255
2017-09-04T12:46:38.339Z,260
2017-09-04T12:47:38.719Z,265
2017-09-04T12:48:38.238Z,265
2017-09-04T12:49:38.950Z,275
2017-09-04T12:50:38.856Z,275
2017-09-04T12:51:38.709Z,270
2017-09-04T12:52:38.484Z,260
2017-09-04T12:53:39.520Z,260
2017-09-04T12:54:39.413Z,265
2017-09-04T12:55:38.953Z,270
2017-09-04T12:56:39.310Z,265
2017-09-04T12:57:39.715Z,260
2017-09-04T12:58:40.749Z,250
2017-09-04T12:59:40.574Z,240
2017-09-04T13:00:40.442Z,235
2017-09-04T13:01:40.535Z,240
2017-09-04T13:02:40.586Z,230
2017-09-04T13:03:40.921Z,215
2017-09-04T13:04:40.276Z,210
2017-09-04T13:05:40.974Z,245
2017-09-04T13:06:41.014Z,240
2017-09-04T13:07:41.068Z,235
2017-09-04T13:08:41.747Z,205
2017-09-04T13:09:41.449Z,195
2017-09-04T13:10:42.133Z,205
2017-09-04T13:11:42.471Z,225
2017-09-04T13:12:42.151Z,235
2017-09-04T13:13:42.232Z,225
2017-09-04T13:14:42.351Z,215
2017-09-04T13:15:43.024Z,215
2017-09-04T13:16:43.076Z,235
2017-09-04T13:17:42.832Z,250
2017-09-04T13:18:43.180Z,255
2017-09-04T13:19:43.212Z,260
2017-09-04T13:20:43.304Z,265
2017-09-04T13:21:44.200Z,265
2017-09-04T13:22:44.361Z,275
2017-09-04T13:23:43.442Z,280
2017-09-04T13:24:44.575Z,270
2017-09-04T13:25:43.592Z,265
2017-09-04T13:26:44.229Z,260
2017-09-04T13:27:44.856Z,275
2017-09-04T13:28:44.631Z,285
2017-09-04T13:29:44.654Z,275
2017-09-04T13:30:44.987Z,285
2017-09-04T13:31:44.764Z,320
2017-09-04T13:32:45.095Z,315
2017-09-04T13:33:45.137Z,300
2017-09-04T13:34:43.983Z,290
2017-09-04T13:35:45.197Z,275
2017-09-04T13:36:45.192Z,290
2017-09-04T13:37:45.126Z,275
2017-09-04T13:38:45.287Z,255
2017-09-04T13:39:45.326Z,265
2017-09-04T13:40:45.037Z,280
2017-09-04T13:41:44.785Z,275
2017-09-04T13:42:45.455Z,275
2017-09-04T13:43:45.829Z,310
2017-09-04T13:44:45.536Z,280
2017-09-04T13:45:45.903Z,285
2017-09-04T13:46:45.895Z,270
2017-09-04T13:47:46.001Z,235
2017-09-04T13:48:46.653Z,240
2017-09-04T13:49:46.650Z,235
2017-09-04T13:50:46.489Z,225
2017-09-04T13:51:46.640Z,220
2017-09-04T13:52:46.763Z,215
2017-09-04T13:53:46.472Z,225
2017-09-04T13:54:46.224Z,225
2017-09-04T13:55:45.989Z,220
2017-09-04T13:56:46.630Z,215
2017-09-04T13:57:46.950Z,210
2017-09-04T13:58:46.992Z,225
2017-09-04T13:59:47.045Z,245
2017-09-04T14:00:47.448Z,255
2017-09-04T14:01:48.397Z,260